createdAt,value
2019-01-16T00:00:43.708Z,9.60
2019-01-16T00:03:19.880Z,9.60
2019-01-16T00:06:06.044Z,9.60
2019-01-16T00:08:39.842Z,9.60
2019-01-16T00:11:13.631Z,9.50
2019-01-16T00:13:44.680Z,9.60
2019-01-16T00:16:24.650Z,9.60
2019-01-16T00:19:12.202Z,9.50
2019-01-16T00:21:43.171Z,9.50
2019-01-16T00:24:29.258Z,9.50
2019-01-16T00:27:05.860Z,9.50
2019-01-16T00:29:49.250Z,9.50
2019-01-16T00:32:23.054Z,9.50
2019-01-16T00:35:09.841Z,9.50
2019-01-16T00:37:46.407Z,9.50
2019-01-16T00:40:20.522Z,9.50
2019-01-16T00:42:54.562Z,9.60
2019-01-16T00:45:25.624Z,9.60
2019-01-16T00:48:02.520Z,9.60
2019-01-16T00:50:49.636Z,9.60
2019-01-16T00:53:26.428Z,9.70
2019-01-16T00:55:57.892Z,9.70
2019-01-16T00:58:31.702Z,9.70
2019-01-16T01:01:05.869Z,9.70
2019-01-16T01:03:39.439Z,9.70
2019-01-16T01:06:10.498Z,9.70
2019-01-16T01:08:41.603Z,9.70
2019-01-16T01:11:32.678Z,9.70
2019-01-16T01:14:06.843Z,9.70
2019-01-16T01:16:52.554Z,9.70
2019-01-16T01:19:39.565Z,9.70
2019-01-16T01:22:19.245Z,9.70
2019-01-16T01:24:50.215Z,9.80
2019-01-16T01:27:21.222Z,9.70
2019-01-16T01:29:58.133Z,9.80
2019-01-16T01:32:29.468Z,9.80
2019-01-16T01:35:00.614Z,9.70
2019-01-16T01:37:34.386Z,9.80
2019-01-16T01:40:15.699Z,9.80
2019-01-16T01:42:55.486Z,9.80
2019-01-16T01:45:32.227Z,9.80
2019-01-16T01:48:15.474Z,9.70
2019-01-16T01:50:49.104Z,9.80
2019-01-16T01:53:20.241Z,9.80
2019-01-16T01:56:07.472Z,9.80
2019-01-16T01:58:53.482Z,9.70
2019-01-16T02:01:30.560Z,9.70
2019-01-16T02:04:04.528Z,9.70
2019-01-16T02:06:47.935Z,9.70
2019-01-16T02:09:24.466Z,9.70
2019-01-16T02:11:58.174Z,9.80
2019-01-16T02:14:32.266Z,9.80
2019-01-16T02:17:03.315Z,9.80
2019-01-16T02:19:37.229Z,9.80
2019-01-16T02:22:24.771Z,9.70
2019-01-16T02:25:10.508Z,9.70
2019-01-16T02:27:41.480Z,9.70
2019-01-16T02:30:31.260Z,9.70
2019-01-16T02:33:10.330Z,9.70
2019-01-16T02:35:57.848Z,9.60
2019-01-16T02:38:38.320Z,9.60
2019-01-16T02:41:09.309Z,9.60
2019-01-16T02:43:49.500Z,9.60
2019-01-16T02:46:20.848Z,9.70
2019-01-16T02:49:11.035Z,9.70
2019-01-16T02:51:42.043Z,9.80
2019-01-16T02:54:13.011Z,9.70
2019-01-16T02:56:44.007Z,9.80
2019-01-16T02:59:15.041Z,9.80
2019-01-16T03:01:46.041Z,9.70
2019-01-16T03:04:33.461Z,9.80
2019-01-16T03:07:07.642Z,9.70
2019-01-16T03:09:44.552Z,9.70
2019-01-16T03:12:22.079Z,9.80
2019-01-16T03:15:05.090Z,9.70
2019-01-16T03:17:44.914Z,9.70
2019-01-16T03:20:32.222Z,9.70
2019-01-16T03:23:03.682Z,9.60
2019-01-16T03:25:43.819Z,9.50
2019-01-16T03:28:14.814Z,9.60
2019-01-16T03:30:45.976Z,9.60
2019-01-16T03:33:33.487Z,9.60
2019-01-16T03:36:07.574Z,9.60
2019-01-16T03:38:54.577Z,9.60
2019-01-16T03:41:25.712Z,9.70
2019-01-16T03:43:59.474Z,9.70
2019-01-16T03:46:30.451Z,9.70
2019-01-16T03:49:13.134Z,9.70
2019-01-16T03:51:43.414Z,9.70
2019-01-16T03:54:17.141Z,9.70
2019-01-16T03:56:48.112Z,9.70
2019-01-16T03:59:37.175Z,9.70
2019-01-16T04:02:20.356Z,9.70
2019-01-16T04:04:54.027Z,9.60
2019-01-16T04:07:43.053Z,9.60
2019-01-16T04:10:23.423Z,9.50
2019-01-16T04:12:57.219Z,9.50
2019-01-16T04:15:37.685Z,9.50
2019-01-16T04:18:25.031Z,9.60
2019-01-16T04:20:59.117Z,9.50
2019-01-16T04:23:33.097Z,9.60
2019-01-16T04:26:20.311Z,9.50
2019-01-16T04:28:57.503Z,9.60
2019-01-16T04:31:28.500Z,9.50
2019-01-16T04:34:15.594Z,9.60
2019-01-16T04:36:46.651Z,9.60
2019-01-16T04:39:17.619Z,9.60
2019-01-16T04:41:48.616Z,9.70
2019-01-16T04:44:31.999Z,9.70
2019-01-16T04:47:06.223Z,9.70
2019-01-16T04:49:45.875Z,9.60
2019-01-16T04:52:23.049Z,9.60
2019-01-16T04:54:54.058Z,9.60
2019-01-16T04:57:31.042Z,9.50
2019-01-16T05:00:08.190Z,9.50
2019-01-16T05:02:48.431Z,9.40
2019-01-16T05:05:36.062Z,9.30
2019-01-16T05:08:24.354Z,9.30
2019-01-16T05:10:55.331Z,9.20
2019-01-16T05:13:32.288Z,9.20
2019-01-16T05:16:03.334Z,9.20
2019-01-16T05:18:51.072Z,9.10
2019-01-16T05:21:24.787Z,9.10
2019-01-16T05:24:11.979Z,9.10
2019-01-16T05:26:43.015Z,9.00
2019-01-16T05:29:29.190Z,9.10
2019-01-16T05:32:00.391Z,9.10
2019-01-16T05:34:37.137Z,9.10
2019-01-16T05:37:10.894Z,9.10
2019-01-16T05:39:47.978Z,9.00
2019-01-16T05:42:25.150Z,8.90
2019-01-16T05:45:05.475Z,8.90
2019-01-16T05:47:42.435Z,9.00
2019-01-16T05:50:13.583Z,9.00
2019-01-16T05:52:44.564Z,9.00
2019-01-16T05:55:18.480Z,8.90
2019-01-16T05:57:49.442Z,8.80
2019-01-16T06:00:20.507Z,8.80
2019-01-16T06:03:06.197Z,8.80
2019-01-16T06:05:53.705Z,8.70
2019-01-16T06:08:24.699Z,8.70
2019-01-16T06:11:13.631Z,8.70
2019-01-16T06:13:44.594Z,8.70
2019-01-16T06:16:15.663Z,8.70
2019-01-16T06:18:46.628Z,8.70
2019-01-16T06:21:23.503Z,8.60
2019-01-16T06:23:54.493Z,8.60
2019-01-16T06:26:31.714Z,8.60
2019-01-16T06:29:11.727Z,8.50
2019-01-16T06:31:51.815Z,8.50
2019-01-16T06:34:22.790Z,8.60
2019-01-16T06:36:53.881Z,8.60
2019-01-16T06:39:24.847Z,8.60
2019-01-16T06:42:07.777Z,8.50
2019-01-16T06:44:50.762Z,8.50
2019-01-16T06:47:25.389Z,8.40
2019-01-16T06:50:16.483Z,8.30
2019-01-16T06:52:45.038Z,8.30
2019-01-16T06:55:18.555Z,8.30
2019-01-16T06:57:58.384Z,8.30
2019-01-16T07:00:43.950Z,8.40
2019-01-16T07:03:15.016Z,8.30
2019-01-16T07:05:55.307Z,8.40
2019-01-16T07:08:42.822Z,8.50
2019-01-16T07:11:26.015Z,8.60
2019-01-16T07:13:59.647Z,8.60
2019-01-16T07:16:45.768Z,8.60
2019-01-16T07:19:16.751Z,8.70
2019-01-16T07:21:59.687Z,8.70
2019-01-16T07:24:39.503Z,8.70
2019-01-16T07:27:26.416Z,8.90
2019-01-16T07:30:00.242Z,8.90
2019-01-16T07:32:43.283Z,8.90
2019-01-16T07:35:23.161Z,8.90
2019-01-16T07:37:56.675Z,9.00
2019-01-16T07:40:27.726Z,9.00
2019-01-16T07:42:58.767Z,9.00
2019-01-16T07:45:34.750Z,8.90
2019-01-16T07:48:08.920Z,8.90
2019-01-16T07:50:56.089Z,8.90
2019-01-16T07:53:29.498Z,8.90
2019-01-16T07:56:16.763Z,8.80
2019-01-16T07:59:03.902Z,8.70
2019-01-16T08:01:47.498Z,8.70
2019-01-16T08:04:21.221Z,8.60
2019-01-16T08:06:54.667Z,8.50
2019-01-16T08:09:25.953Z,8.50
2019-01-16T08:12:08.972Z,8.50
2019-01-16T08:14:40.097Z,8.50
2019-01-16T08:17:11.231Z,8.50
2019-01-16T08:19:47.703Z,8.50
2019-01-16T08:22:35.175Z,8.50
2019-01-16T08:25:07.054Z,8.50
2019-01-16T08:27:57.794Z,8.40
2019-01-16T08:30:28.900Z,8.40
2019-01-16T08:33:02.887Z,8.50
2019-01-16T08:35:50.317Z,8.50
2019-01-16T08:38:37.586Z,8.50
2019-01-16T08:41:20.606Z,8.50
2019-01-16T08:43:57.461Z,8.50
2019-01-16T08:46:44.958Z,8.50
2019-01-16T08:49:21.841Z,8.50
2019-01-16T08:51:58.819Z,8.50
2019-01-16T08:54:29.891Z,8.50
2019-01-16T08:57:09.861Z,8.50
2019-01-16T08:59:41.003Z,8.50
2019-01-16T09:02:28.230Z,8.60
2019-01-16T09:05:15.798Z,8.70
2019-01-16T09:07:49.330Z,8.80
2019-01-16T09:10:29.694Z,8.80
2019-01-16T09:13:16.891Z,8.90
2019-01-16T09:15:47.898Z,8.90
2019-01-16T09:18:18.873Z,9.10
2019-01-16T09:20:50.070Z,9.10
2019-01-16T09:23:33.270Z,9.10
2019-01-16T09:26:10.232Z,9.10
2019-01-16T09:28:41.443Z,9.10
2019-01-16T09:31:28.650Z,9.10
2019-01-16T09:34:02.881Z,9.20
2019-01-16T09:36:49.049Z,9.10
2019-01-16T09:39:20.090Z,9.10
2019-01-16T09:41:53.828Z,9.10
2019-01-16T09:44:28.105Z,9.10
2019-01-16T09:47:05.216Z,9.10
2019-01-16T09:49:36.194Z,9.00
2019-01-16T09:52:23.723Z,9.00
2019-01-16T09:55:10.666Z,8.90
2019-01-16T09:57:41.961Z,8.90
2019-01-16T10:00:16.127Z,8.90
2019-01-16T10:03:03.382Z,8.80
2019-01-16T10:05:39.999Z,8.80
2019-01-16T10:08:16.848Z,8.80
2019-01-16T10:11:02.665Z,8.70
2019-01-16T10:13:50.194Z,8.60
2019-01-16T10:16:21.166Z,8.60
2019-01-16T10:18:58.261Z,8.60
2019-01-16T10:21:45.817Z,8.60
2019-01-16T10:24:20.020Z,8.60
2019-01-16T10:26:51.206Z,8.70
2019-01-16T10:29:37.791Z,8.70
2019-01-16T10:32:08.921Z,8.70
2019-01-16T10:34:58.394Z,8.80
2019-01-16T10:37:32.513Z,8.80
2019-01-16T10:40:04.655Z,8.90
2019-01-16T10:42:51.070Z,8.90
2019-01-16T10:45:34.353Z,8.90
2019-01-16T10:48:05.386Z,8.90
2019-01-16T10:50:36.520Z,8.90
2019-01-16T10:53:23.960Z,9.00
2019-01-16T10:55:55.013Z,9.10
2019-01-16T10:58:26.051Z,8.90
2019-01-16T11:01:03.087Z,8.80
2019-01-16T11:03:49.255Z,8.70
2019-01-16T11:06:23.275Z,8.60
2019-01-16T11:08:54.384Z,8.50
2019-01-16T11:11:28.414Z,8.50
2019-01-16T11:14:14.711Z,8.50
2019-01-16T11:16:46.414Z,8.40
2019-01-16T11:19:17.451Z,8.50
2019-01-16T11:21:51.333Z,8.60
2019-01-16T11:24:34.361Z,8.50
2019-01-16T11:27:08.431Z,8.60
2019-01-16T11:29:56.558Z,8.50
2019-01-16T11:32:42.474Z,8.40
2019-01-16T11:35:29.525Z,8.40
2019-01-16T11:38:09.947Z,8.30
2019-01-16T11:40:40.975Z,8.20
2019-01-16T11:43:28.707Z,8.20
2019-01-16T11:46:09.254Z,8.20
2019-01-16T11:48:52.794Z,8.10
2019-01-16T11:51:23.838Z,8.10
2019-01-16T11:54:11.710Z,8.10
2019-01-16T11:56:46.011Z,8.10
2019-01-16T11:59:17.139Z,8.00
2019-01-16T12:01:51.142Z,8.10
2019-01-16T12:04:27.926Z,8.10
2019-01-16T12:06:59.003Z,8.10
2019-01-16T12:09:36.558Z,8.00
2019-01-16T12:12:16.478Z,8.00
2019-01-16T12:15:03.681Z,7.90
2019-01-16T12:17:40.503Z,7.90
2019-01-16T12:20:24.096Z,7.90
2019-01-16T12:23:11.622Z,7.90
2019-01-16T12:25:48.807Z,7.80
2019-01-16T12:28:37.829Z,7.70
2019-01-16T12:31:08.992Z,7.50
2019-01-16T12:33:42.716Z,7.50
2019-01-16T12:36:13.914Z,7.50
2019-01-16T12:39:00.190Z,7.40
2019-01-16T12:41:31.279Z,7.40
2019-01-16T12:44:24.831Z,7.20
2019-01-16T12:47:10.897Z,7.20
2019-01-16T12:49:54.356Z,7.20
2019-01-16T12:52:34.267Z,7.10
2019-01-16T12:55:11.806Z,7.00
2019-01-16T12:57:43.255Z,6.90
2019-01-16T13:00:19.499Z,6.90
2019-01-16T13:03:02.531Z,7.00
2019-01-16T13:05:33.575Z,7.00
2019-01-16T13:08:16.848Z,7.00
2019-01-16T13:10:50.548Z,7.00
2019-01-16T13:13:30.573Z,7.00
2019-01-16T13:16:04.636Z,7.00
2019-01-16T13:18:38.403Z,7.00
2019-01-16T13:21:18.591Z,7.00
2019-01-16T13:23:55.417Z,7.10
2019-01-16T13:26:35.695Z,7.10
2019-01-16T13:29:22.135Z,7.10
2019-01-16T13:32:09.587Z,7.10
2019-01-16T13:34:52.733Z,7.00
2019-01-16T13:37:41.782Z,7.00
2019-01-16T13:40:20.897Z,7.00
2019-01-16T13:43:10.228Z,6.90
2019-01-16T13:45:57.460Z,6.90
2019-01-16T13:48:28.517Z,6.80
2019-01-16T13:51:03.078Z,6.80
2019-01-16T13:53:39.719Z,6.80
2019-01-16T13:56:17.233Z,6.80
2019-01-16T13:58:51.014Z,6.80
2019-01-16T14:01:28.148Z,6.80
2019-01-16T14:03:59.126Z,6.80
2019-01-16T14:06:46.402Z,6.80
2019-01-16T14:09:17.363Z,6.70
2019-01-16T14:11:57.299Z,6.70
2019-01-16T14:14:28.423Z,6.70
2019-01-16T14:17:11.308Z,6.70
2019-01-16T14:19:58.828Z,6.70
2019-01-16T14:22:35.514Z,6.70
2019-01-16T14:25:10.277Z,6.70
2019-01-16T14:27:57.288Z,6.70
2019-01-16T14:30:30.933Z,6.70
2019-01-16T14:33:07.723Z,6.70
2019-01-16T14:35:39.369Z,6.70
2019-01-16T14:38:26.954Z,6.70
2019-01-16T14:40:58.044Z,6.70
2019-01-16T14:43:35.227Z,6.70
2019-01-16T14:46:09.338Z,6.80
2019-01-16T14:48:43.161Z,6.80
2019-01-16T14:51:20.395Z,6.80
2019-01-16T14:53:51.408Z,6.90
2019-01-16T14:56:37.578Z,6.90
2019-01-16T14:59:11.498Z,6.90
2019-01-16T15:01:51.467Z,7.00
2019-01-16T15:04:28.375Z,7.00
2019-01-16T15:07:15.962Z,7.00
2019-01-16T15:10:02.315Z,7.00
2019-01-16T15:12:49.754Z,7.10
2019-01-16T15:15:27.001Z,7.00
2019-01-16T15:17:58.044Z,7.00
2019-01-16T15:20:31.721Z,7.10
2019-01-16T15:23:11.427Z,7.10
2019-01-16T15:25:42.770Z,7.10
2019-01-16T15:28:30.275Z,7.10
2019-01-16T15:31:18.118Z,7.10
2019-01-16T15:33:52.150Z,7.10
2019-01-16T15:36:38.274Z,7.10
2019-01-16T15:39:28.231Z,7.10
2019-01-16T15:42:08.199Z,7.00
2019-01-16T15:44:39.561Z,7.00
2019-01-16T15:47:13.435Z,6.90
2019-01-16T15:49:44.480Z,6.80
2019-01-16T15:52:27.851Z,6.80
2019-01-16T15:55:08.158Z,6.70
2019-01-16T15:57:39.248Z,6.60
2019-01-16T16:00:29.481Z,6.60
2019-01-16T16:03:16.694Z,6.50
2019-01-16T16:05:47.686Z,6.50
2019-01-16T16:08:35.160Z,6.50
2019-01-16T16:11:06.367Z,6.50
2019-01-16T16:13:40.372Z,6.40
2019-01-16T16:16:11.347Z,6.40
2019-01-16T16:18:54.568Z,6.40
2019-01-16T16:21:41.899Z,6.40
2019-01-16T16:24:29.794Z,6.40
2019-01-16T16:27:04.142Z,6.30
2019-01-16T16:29:51.401Z,6.30
2019-01-16T16:32:39.080Z,6.30
2019-01-16T16:35:11.761Z,6.20
2019-01-16T16:37:51.510Z,6.10
2019-01-16T16:40:25.471Z,6.10
2019-01-16T16:42:59.191Z,6.00
2019-01-16T16:45:33.846Z,6.00
2019-01-16T16:48:04.846Z,6.00
2019-01-16T16:50:36.106Z,6.00
2019-01-16T16:53:07.225Z,6.10
2019-01-16T16:55:55.202Z,6.10
2019-01-16T16:58:44.567Z,6.20
2019-01-16T17:01:15.715Z,6.30
2019-01-16T17:03:46.772Z,6.40
2019-01-16T17:06:33.252Z,6.40
2019-01-16T17:09:06.819Z,6.30
2019-01-16T17:11:45.618Z,6.30
2019-01-16T17:14:31.610Z,6.30
2019-01-16T17:17:02.619Z,6.20
2019-01-16T17:19:36.974Z,6.10
2019-01-16T17:22:17.390Z,6.10
2019-01-16T17:24:52.018Z,6.00
2019-01-16T17:27:38.291Z,5.90
2019-01-16T17:30:12.353Z,5.90
2019-01-16T17:32:43.443Z,5.90
2019-01-16T17:35:29.755Z,5.80
2019-01-16T17:38:13.047Z,5.90
2019-01-16T17:40:53.314Z,5.80
2019-01-16T17:43:36.530Z,5.90
2019-01-16T17:46:07.720Z,5.90
2019-01-16T17:48:39.539Z,5.80
2019-01-16T17:51:26.837Z,5.70
2019-01-16T17:54:04.542Z,5.50
2019-01-16T17:56:35.591Z,5.40
2019-01-16T17:59:19.412Z,5.20
2019-01-16T18:01:50.936Z,5.10
2019-01-16T18:04:25.057Z,4.90
2019-01-16T18:07:02.087Z,4.80
2019-01-16T18:09:48.426Z,4.80
2019-01-16T18:12:19.571Z,4.70
2019-01-16T18:14:51.070Z,4.70
2019-01-16T18:17:22.159Z,4.60
2019-01-16T18:19:56.327Z,4.60
2019-01-16T18:22:45.286Z,4.60
2019-01-16T18:25:22.845Z,4.50
2019-01-16T18:28:02.791Z,4.40
2019-01-16T18:30:34.186Z,4.50
2019-01-16T18:33:05.491Z,4.40
2019-01-16T18:35:49.691Z,4.40
2019-01-16T18:38:37.267Z,4.50
2019-01-16T18:41:20.212Z,4.50
2019-01-16T18:43:53.963Z,4.70
2019-01-16T18:46:31.004Z,4.70
2019-01-16T18:49:18.647Z,4.70
2019-01-16T18:51:58.931Z,4.70
2019-01-16T18:54:30.053Z,4.60
2019-01-16T18:57:20.095Z,4.60
2019-01-16T18:59:51.187Z,4.50
2019-01-16T19:02:31.354Z,4.50
2019-01-16T19:05:02.592Z,4.50
2019-01-16T19:07:49.773Z,4.40
2019-01-16T19:10:26.430Z,4.30
2019-01-16T19:12:57.523Z,4.40
2019-01-16T19:15:45.388Z,4.40
2019-01-16T19:18:31.873Z,4.40
2019-01-16T19:21:12.056Z,4.40
2019-01-16T19:24:00.030Z,4.40
2019-01-16T19:26:39.945Z,4.40
2019-01-16T19:29:10.958Z,4.40
2019-01-16T19:31:43.431Z,4.40
2019-01-16T19:34:17.490Z,4.40
2019-01-16T19:36:48.628Z,4.30
2019-01-16T19:39:38.275Z,4.20
2019-01-16T19:42:09.480Z,4.10
2019-01-16T19:44:43.624Z,4.10
2019-01-16T19:47:21.232Z,4.10
2019-01-16T19:49:59.127Z,4.20
2019-01-16T19:52:46.514Z,4.20
2019-01-16T19:55:30.351Z,4.20
2019-01-16T19:58:18.403Z,4.10
2019-01-16T20:00:49.563Z,4.00
2019-01-16T20:03:24.536Z,4.00
2019-01-16T20:06:04.671Z,4.00
2019-01-16T20:08:38.484Z,3.90
2019-01-16T20:11:09.572Z,3.90
2019-01-16T20:13:49.471Z,3.90
2019-01-16T20:16:25.877Z,3.90
2019-01-16T20:19:14.985Z,3.90
2019-01-16T20:22:02.062Z,3.80
2019-01-16T20:24:48.500Z,3.80
2019-01-16T20:27:22.148Z,3.90
2019-01-16T20:29:53.285Z,4.00
2019-01-16T20:32:36.262Z,4.20
2019-01-16T20:35:10.029Z,4.30
2019-01-16T20:37:41.679Z,4.40
2019-01-16T20:40:13.578Z,4.40
2019-01-16T20:43:01.063Z,4.50
2019-01-16T20:45:38.275Z,4.60
2019-01-16T20:48:24.380Z,4.60
2019-01-16T20:51:12.962Z,4.80
2019-01-16T20:53:44.039Z,4.80
2019-01-16T20:56:15.405Z,4.90
2019-01-16T20:59:05.277Z,4.90
2019-01-16T21:01:36.335Z,5.00
2019-01-16T21:04:19.686Z,5.00
2019-01-16T21:07:00.661Z,4.90
2019-01-16T21:09:48.583Z,5.00
2019-01-16T21:12:22.763Z,5.10
2019-01-16T21:14:59.904Z,5.10
2019-01-16T21:17:40.204Z,5.20
2019-01-16T21:20:18.686Z,5.20
2019-01-16T21:22:49.753Z,5.20
2019-01-16T21:25:20.951Z,5.20
2019-01-16T21:28:04.047Z,5.30
2019-01-16T21:30:41.263Z,5.30
2019-01-16T21:33:24.586Z,5.40
2019-01-16T21:36:04.601Z,5.50
2019-01-16T21:38:47.750Z,5.40
2019-01-16T21:41:22.273Z,5.40
2019-01-16T21:44:09.902Z,5.30
2019-01-16T21:46:54.762Z,5.30
2019-01-16T21:49:37.988Z,5.30
2019-01-16T21:52:22.034Z,5.20
2019-01-16T21:54:53.076Z,5.20
2019-01-16T21:57:36.717Z,5.20
2019-01-16T22:00:10.794Z,5.30
2019-01-16T22:02:58.219Z,5.30
2019-01-16T22:05:48.040Z,5.30
2019-01-16T22:08:32.566Z,5.30
2019-01-16T22:11:06.473Z,5.30
2019-01-16T22:13:56.382Z,5.20
2019-01-16T22:16:33.762Z,5.20
2019-01-16T22:19:05.089Z,5.10
2019-01-16T22:21:52.860Z,5.10
2019-01-16T22:24:40.287Z,5.10
2019-01-16T22:27:11.339Z,5.20
2019-01-16T22:29:52.114Z,5.20
2019-01-16T22:32:39.811Z,5.20
2019-01-16T22:35:17.166Z,5.10
2019-01-16T22:37:54.683Z,5.10
2019-01-16T22:40:28.867Z,5.10
2019-01-16T22:43:02.860Z,5.10
2019-01-16T22:45:39.991Z,5.10
2019-01-16T22:48:26.433Z,5.10
2019-01-16T22:50:58.559Z,5.10
2019-01-16T22:59:47.669Z,5.10
2019-01-16T23:02:36.964Z,5.20
2019-01-16T23:05:17.555Z,5.20
2019-01-16T23:07:48.624Z,5.30
2019-01-16T23:10:19.926Z,5.30
2019-01-16T23:13:09.887Z,5.30
2019-01-16T23:15:54.387Z,5.30
2019-01-16T23:18:43.319Z,5.30
2019-01-16T23:21:30.724Z,5.30
2019-01-16T23:24:01.790Z,5.40
2019-01-16T23:26:39.761Z,5.40
2019-01-16T23:29:22.656Z,5.40
2019-01-16T23:31:53.774Z,5.40
2019-01-16T23:34:31.444Z,5.40
2019-01-16T23:37:11.255Z,5.40
2019-01-16T23:39:58.452Z,5.40
2019-01-16T23:42:32.503Z,5.40
2019-01-16T23:45:21.801Z,5.40
2019-01-16T23:47:58.672Z,5.40
2019-01-16T23:50:29.823Z,5.30
2019-01-16T23:53:00.838Z,5.20
2019-01-16T23:55:31.836Z,5.20
2019-01-16T23:58:03.022Z,5.20
